Time,TemperatureF,DewpointF,PressureIn,WindDirection,WindDirectionDegrees,WindSpeedMPH,WindSpeedGustMPH,Humidity,HourlyPrecipIn,Conditions,Clouds,dailyrainin,SolarRadiationWatts/m^2,SoftwareType,DateUTC
2013-01-11 00:00:00,32.3,21.5,29.77,N/A,-32768,0.0,0.0,64,0.00,,,0.00,0,Wunderground v.1.15,2013-01-11 05:00:00,
2013-01-11 00:03:00,32.4,21.6,29.77,N/A,-32768,0.0,0.0,64,0.00,,,0.00,0,Wunderground v.1.15,2013-01-11 05:03:00,
2013-01-11 00:05:00,32.4,21.6,29.77,N/A,-32768,0.0,0.0,64,0.00,,,0.00,0,Wunderground v.1.15,2013-01-11 05:05:00,
2013-01-11 00:08:00,32.3,21.5,29.77,N/A,-32768,0.0,0.0,64,0.00,,,0.00,0,Wunderground v.1.15,2013-01-11 05:08:00,
2013-01-11 00:13:00,32.2,21.7,29.76,N/A,-32768,0.0,0.0,65,0.00,,,0.00,0,Wunderground v.1.15,2013-01-11 05:13:00,
2013-01-11 00:19:00,32.3,21.8,29.75,N/A,-32768,0.0,0.0,65,0.00,,,0.00,0,Wunderground v.1.15,2013-01-11 05:19:00,
2013-01-11 00:24:00,32.4,21.9,29.75,N/A,-32768,0.0,0.0,65,0.00,,,0.00,0,Wunderground v.1.15,2013-01-11 05:24:00,
2013-01-11 00:30:00,32.5,22.0,29.75,N/A,-32768,0.0,0.0,65,0.00,,,0.00,0,Wunderground v.1.15,2013-01-11 05:30:00,
2013-01-11 00:36:00,32.9,22.8,29.75,N/A,-32768,0.0,0.0,66,0.00,,,0.00,0,Wunderground v.1.15,2013-01-11 05:36:00,
2013-01-11 00:41:00,33.3,22.8,29.75,N/A,-32768,0.0,0.0,65,0.00,,,0.00,0,Wunderground v.1.15,2013-01-11 05:41:00,
2013-01-11 00:47:00,33.2,22.7,29.76,N/A,-32768,0.0,0.0,65,0.00,,,0.00,0,Wunderground v.1.15,2013-01-11 05:47:00,
2013-01-11 00:53:00,33.4,22.9,29.75,N/A,-32768,0.0,0.0,65,0.00,,,0.00,0,Wunderground v.1.15,2013-01-11 05:53:00,
2013-01-11 00:59:00,33.5,23.0,29.75,N/A,-32768,0.0,0.0,65,0.00,,,0.00,0,Wunderground v.1.15,2013-01-11 05:59:00,
2013-01-11 01:04:00,33.6,23.1,29.75,N/A,-32768,0.0,0.0,65,0.00,,,0.00,0,Wunderground v.1.15,2013-01-11 06:04:00,
2013-01-11 01:10:00,33.8,23.3,29.75,N/A,-32768,0.0,0.0,65,0.00,,,0.00,0,Wunderground v.1.15,2013-01-11 06:10:00,
2013-01-11 01:16:00,33.6,23.1,29.75,N/A,-32768,0.0,0.0,65,0.00,,,0.00,0,Wunderground v.1.15,2013-01-11 06:16:00,
2013-01-11 01:22:00,33.6,23.1,29.75,N/A,-32768,0.0,0.0,65,0.00,,,0.00,0,Wunderground v.1.15,2013-01-11 06:22:00,
2013-01-11 01:27:00,33.5,23.0,29.75,N/A,-32768,0.0,0.0,65,0.00,,,0.00,0,Wunderground v.1.15,2013-01-11 06:27:00,
2013-01-11 01:33:00,33.9,23.4,29.74,N/A,-32768,0.0,0.0,65,0.00,,,0.00,0,Wunderground v.1.15,2013-01-11 06:33:00,
2013-01-11 01:39:00,33.6,23.1,29.74,N/A,-32768,0.0,0.0,65,0.00,,,0.00,0,Wunderground v.1.15,2013-01-11 06:39:00,
2013-01-11 01:44:00,33.6,23.1,29.74,N/A,-32768,0.0,0.0,65,0.00,,,0.00,0,Wunderground v.1.15,2013-01-11 06:44:00,
2013-01-11 01:50:00,33.8,23.6,29.74,N/A,-32768,0.0,0.0,66,0.00,,,0.00,0,Wunderground v.1.15,2013-01-11 06:50:00,
2013-01-11 01:56:00,33.9,23.7,29.74,N/A,-32768,0.0,0.0,66,0.00,,,0.00,0,Wunderground v.1.15,2013-01-11 06:56:00,
2013-01-11 02:01:00,34.0,23.8,29.74,N/A,-32768,0.0,0.0,66,0.00,,,0.00,0,Wunderground v.1.15,2013-01-11 07:01:00,
2013-01-11 02:06:00,34.2,24.0,29.74,N/A,-32768,0.0,0.0,66,0.00,,,0.00,0,Wunderground v.1.15,2013-01-11 07:06:00,
2013-01-11 02:11:00,34.2,24.0,29.74,N/A,-32768,0.0,0.0,66,0.00,,,0.00,0,Wunderground v.1.15,2013-01-11 07:11:00,
2013-01-11 02:16:00,34.3,24.1,29.74,N/A,-32768,0.0,0.0,66,0.00,,,0.00,0,Wunderground v.1.15,2013-01-11 07:16:00,
2013-01-11 02:21:00,34.0,23.8,29.74,N/A,-32768,0.0,0.0,66,0.00,,,0.00,0,Wunderground v.1.15,2013-01-11 07:21:00,
2013-01-11 02:26:00,33.8,23.6,29.74,N/A,-32768,0.0,0.0,66,0.00,,,0.00,0,Wunderground v.1.15,2013-01-11 07:26:00,
2013-01-11 02:31:00,33.7,23.5,29.74,N/A,-32768,0.0,0.0,66,0.00,,,0.00,0,Wunderground v.1.15,2013-01-11 07:31:00,
2013-01-11 02:36:00,33.8,23.6,29.74,N/A,-32768,0.0,0.0,66,0.00,,,0.00,0,Wunderground v.1.15,2013-01-11 07:36:00,
2013-01-11 02:41:00,34.0,23.8,29.74,N/A,-32768,0.0,0.0,66,0.00,,,0.00,0,Wunderground v.1.15,2013-01-11 07:41:00,
2013-01-11 02:46:00,34.0,23.8,29.72,N/A,-32768,0.0,0.0,66,0.00,,,0.00,0,Wunderground v.1.15,2013-01-11 07:46:00,
2013-01-11 02:51:00,34.0,24.2,29.72,N/A,-32768,0.0,0.0,67,0.00,,,0.00,0,Wunderground v.1.15,2013-01-11 07:51:00,
2013-01-11 02:56:00,34.6,24.8,29.72,N/A,-32768,0.0,0.0,67,0.00,,,0.00,0,Wunderground v.1.15,2013-01-11 07:56:00,
2013-01-11 03:01:00,35.1,25.6,29.72,N/A,-32768,0.0,0.0,68,0.00,,,0.00,0,Wunderground v.1.15,2013-01-11 08:01:00,
2013-01-11 03:06:00,35.6,26.1,29.73,N/A,-32768,0.0,0.0,68,0.00,,,0.00,0,Wunderground v.1.15,2013-01-11 08:06:00,
2013-01-11 03:11:00,35.9,26.0,29.73,N/A,-32768,0.0,0.0,67,0.00,,,0.00,0,Wunderground v.1.15,2013-01-11 08:11:00,
2013-01-11 03:16:00,36.0,26.1,29.72,N/A,-32768,0.0,0.0,67,0.00,,,0.00,0,Wunderground v.1.15,2013-01-11 08:16:00,
2013-01-11 03:21:00,36.4,26.8,29.72,N/A,-32768,0.0,0.0,68,0.00,,,0.00,0,Wunderground v.1.15,2013-01-11 08:21:00,
2013-01-11 03:26:00,37.1,27.2,29.72,N/A,-32768,0.0,0.0,67,0.00,,,0.00,0,Wunderground v.1.15,2013-01-11 08:26:00,
2013-01-11 03:31:00,37.7,27.7,29.71,N/A,-32768,0.0,0.0,67,0.00,,,0.00,0,Wunderground v.1.15,2013-01-11 08:31:00,
2013-01-11 03:36:00,38.2,28.2,29.71,N/A,-32768,0.0,0.0,67,0.00,,,0.00,0,Wunderground v.1.15,2013-01-11 08:36:00,
2013-01-11 03:41:00,38.7,28.3,29.71,N/A,-32768,0.0,0.0,66,0.00,,,0.00,0,Wunderground v.1.15,2013-01-11 08:41:00,
2013-01-11 03:46:00,38.9,28.1,29.70,N/A,-32768,0.0,0.0,65,0.00,,,0.00,0,Wunderground v.1.15,2013-01-11 08:46:00,
2013-01-11 03:51:00,39.0,28.2,29.70,N/A,-32768,0.0,0.0,65,0.00,,,0.00,0,Wunderground v.1.15,2013-01-11 08:51:00,
2013-01-11 03:56:00,39.3,28.5,29.70,N/A,-32768,0.0,0.0,65,0.00,,,0.00,0,Wunderground v.1.15,2013-01-11 08:56:00,
2013-01-11 04:01:00,39.4,28.2,29.70,N/A,-32768,0.0,0.0,64,0.00,,,0.00,0,Wunderground v.1.15,2013-01-11 09:01:00,
2013-01-11 04:06:00,39.2,28.4,29.69,N/A,-32768,0.0,0.0,65,0.00,,,0.00,0,Wunderground v.1.15,2013-01-11 09:06:00,
2013-01-11 04:11:00,39.4,28.2,29.69,N/A,-32768,0.0,0.0,64,0.00,,,0.00,0,Wunderground v.1.15,2013-01-11 09:11:00,
2013-01-11 04:16:00,39.3,28.5,29.69,N/A,-32768,0.0,0.0,65,0.00,,,0.00,0,Wunderground v.1.15,2013-01-11 09:16:00,
2013-01-11 04:21:00,39.4,28.6,29.69,N/A,-32768,0.0,0.0,65,0.00,,,0.00,0,Wunderground v.1.15,2013-01-11 09:21:00,
2013-01-11 04:26:00,39.4,28.2,29.70,N/A,-32768,0.0,0.0,64,0.00,,,0.00,0,Wunderground v.1.15,2013-01-11 09:26:00,
2013-01-11 04:31:00,39.4,28.6,29.69,N/A,-32768,0.0,0.0,65,0.00,,,0.00,0,Wunderground v.1.15,2013-01-11 09:31:00,
2013-01-11 04:36:00,39.3,28.5,29.70,N/A,-32768,0.0,0.0,65,0.00,,,0.00,0,Wunderground v.1.15,2013-01-11 09:36:00,
2013-01-11 04:41:00,39.1,28.3,29.70,N/A,-32768,0.0,0.0,65,0.00,,,0.00,0,Wunderground v.1.15,2013-01-11 09:41:00,
2013-01-11 04:46:00,38.9,28.1,29.69,N/A,-32768,0.0,0.0,65,0.00,,,0.00,0,Wunderground v.1.15,2013-01-11 09:46:00,
2013-01-11 04:51:00,38.7,27.9,29.70,N/A,-32768,0.0,0.0,65,0.00,,,0.00,0,Wunderground v.1.15,2013-01-11 09:51:00,
2013-01-11 04:56:00,38.4,27.7,29.69,N/A,-32768,0.0,0.0,65,0.00,,,0.00,0,Wunderground v.1.15,2013-01-11 09:56:00,
2013-01-11 05:01:00,38.3,27.6,29.70,N/A,-32768,0.0,0.0,65,0.00,,,0.00,0,Wunderground v.1.15,2013-01-11 10:01:00,
2013-01-11 05:06:00,37.7,27.0,29.70,N/A,-32768,0.0,0.0,65,0.00,,,0.00,0,Wunderground v.1.15,2013-01-11 10:06:00,
2013-01-11 05:11:00,37.3,27.0,29.71,N/A,-32768,0.0,0.0,66,0.00,,,0.00,0,Wunderground v.1.15,2013-01-11 10:11:00,
2013-01-11 05:16:00,36.8,26.5,29.70,N/A,-32768,0.0,0.0,66,0.00,,,0.00,0,Wunderground v.1.15,2013-01-11 10:16:00,
2013-01-11 05:21:00,36.5,26.2,29.70,N/A,-32768,0.0,0.0,66,0.00,,,0.00,0,Wunderground v.1.15,2013-01-11 10:21:00,
2013-01-11 05:26:00,36.1,25.8,29.71,N/A,-32768,0.0,0.0,66,0.00,,,0.00,0,Wunderground v.1.15,2013-01-11 10:26:00,
2013-01-11 05:31:00,35.4,25.5,29.71,N/A,-32768,0.0,0.0,67,0.00,,,0.00,0,Wunderground v.1.15,2013-01-11 10:31:00,
2013-01-11 05:36:00,35.2,25.3,29.71,N/A,-32768,0.0,0.0,67,0.00,,,0.00,0,Wunderground v.1.15,2013-01-11 10:36:00,
2013-01-11 05:41:00,34.8,25.0,29.71,N/A,-32768,0.0,0.0,67,0.00,,,0.00,0,Wunderground v.1.15,2013-01-11 10:41:00,
2013-01-11 05:46:00,34.6,25.1,29.71,N/A,-32768,0.0,0.0,68,0.00,,,0.00,0,Wunderground v.1.15,2013-01-11 10:46:00,
2013-01-11 05:51:00,34.1,24.6,29.70,N/A,-32768,0.0,0.0,68,0.00,,,0.00,0,Wunderground v.1.15,2013-01-11 10:51:00,
2013-01-11 05:56:00,34.0,24.9,29.70,N/A,-32768,0.0,0.0,69,0.00,,,0.00,0,Wunderground v.1.15,2013-01-11 10:56:00,
2013-01-11 06:01:00,33.9,24.8,29.71,N/A,-32768,0.0,0.0,69,0.00,,,0.00,0,Wunderground v.1.15,2013-01-11 11:01:00,
2013-01-11 06:06:00,33.9,24.8,29.71,N/A,-32768,0.0,0.0,69,0.00,,,0.00,0,Wunderground v.1.15,2013-01-11 11:06:00,
2013-01-11 06:12:00,33.6,24.9,29.70,N/A,-32768,0.0,0.0,70,0.00,,,0.00,0,Wunderground v.1.15,2013-01-11 11:12:00,
2013-01-11 06:17:00,33.4,24.3,29.71,N/A,-32768,0.0,0.0,69,0.00,,,0.00,0,Wunderground v.1.15,2013-01-11 11:17:00,
2013-01-11 06:22:00,33.3,24.6,29.70,N/A,-32768,0.0,0.0,70,0.00,,,0.00,0,Wunderground v.1.15,2013-01-11 11:22:00,
2013-01-11 06:27:00,33.0,24.3,29.70,N/A,-32768,0.0,0.0,70,0.00,,,0.00,0,Wunderground v.1.15,2013-01-11 11:27:00,
2013-01-11 06:32:00,33.1,24.4,29.70,N/A,-32768,0.0,0.0,70,0.00,,,0.00,0,Wunderground v.1.15,2013-01-11 11:32:00,
2013-01-11 06:37:00,33.2,24.8,29.70,N/A,-32768,0.0,0.0,71,0.00,,,0.00,0,Wunderground v.1.15,2013-01-11 11:37:00,
2013-01-11 06:42:00,33.5,25.1,29.70,N/A,-32768,0.0,0.0,71,0.00,,,0.00,0,Wunderground v.1.15,2013-01-11 11:42:00,
2013-01-11 06:47:00,33.4,25.0,29.70,N/A,-32768,0.0,0.0,71,0.00,,,0.00,0,Wunderground v.1.15,2013-01-11 11:47:00,
2013-01-11 06:52:00,33.6,25.2,29.70,N/A,-32768,0.0,0.0,71,0.00,,,0.00,0,Wunderground v.1.15,2013-01-11 11:52:00,
2013-01-11 06:57:00,33.9,25.5,29.70,N/A,-32768,0.0,0.0,71,0.00,,,0.00,0,Wunderground v.1.15,2013-01-11 11:57:00,
2013-01-11 07:02:00,34.1,26.0,29.70,N/A,-32768,0.0,0.0,72,0.00,,,0.00,0,Wunderground v.1.15,2013-01-11 12:02:00,
2013-01-11 07:07:00,34.5,26.4,29.70,N/A,-32768,0.0,0.0,72,0.00,,,0.00,0,Wunderground v.1.15,2013-01-11 12:07:00,
2013-01-11 07:12:00,34.6,26.5,29.71,N/A,-32768,0.0,0.0,72,0.00,,,0.00,0,Wunderground v.1.15,2013-01-11 12:12:00,
2013-01-11 07:17:00,34.5,26.4,29.70,N/A,-32768,0.0,0.0,72,0.00,,,0.00,0,Wunderground v.1.15,2013-01-11 12:17:00,
2013-01-11 07:22:00,34.3,26.2,29.71,N/A,-32768,0.0,0.0,72,0.00,,,0.00,0,Wunderground v.1.15,2013-01-11 12:22:00,
2013-01-11 07:27:00,34.3,26.2,29.70,N/A,-32768,0.0,0.0,72,0.00,,,0.00,0,Wunderground v.1.15,2013-01-11 12:27:00,
2013-01-11 07:32:00,34.1,26.0,29.70,N/A,-32768,0.0,0.0,72,0.00,,,0.00,0,Wunderground v.1.15,2013-01-11 12:32:00,
2013-01-11 07:37:00,34.3,26.2,29.70,N/A,-32768,0.0,0.0,72,0.00,,,0.00,0,Wunderground v.1.15,2013-01-11 12:37:00,
2013-01-11 07:42:00,34.1,26.0,29.70,N/A,-32768,0.0,0.0,72,0.00,,,0.00,0,Wunderground v.1.15,2013-01-11 12:42:00,
2013-01-11 07:47:00,34.2,26.1,29.70,N/A,-32768,0.0,0.0,72,0.00,,,0.00,0,Wunderground v.1.15,2013-01-11 12:47:00,
2013-01-11 07:52:00,34.3,26.2,29.70,N/A,-32768,0.0,0.0,72,0.00,,,0.00,0,Wunderground v.1.15,2013-01-11 12:52:00,
2013-01-11 07:57:00,34.1,26.0,29.70,N/A,-32768,0.0,0.0,72,0.00,,,0.00,0,Wunderground v.1.15,2013-01-11 12:57:00,
2013-01-11 08:02:00,34.1,26.0,29.70,N/A,-32768,0.0,0.0,72,0.00,,,0.00,0,Wunderground v.1.15,2013-01-11 13:02:00,
2013-01-11 08:07:00,34.4,26.3,29.69,N/A,-32768,0.0,0.0,72,0.00,,,0.00,0,Wunderground v.1.15,2013-01-11 13:07:00,
2013-01-11 08:12:00,34.3,26.2,29.69,N/A,-32768,0.0,0.0,72,0.00,,,0.00,0,Wunderground v.1.15,2013-01-11 13:12:00,
2013-01-11 08:17:00,34.5,26.7,29.68,N/A,-32768,0.0,0.0,73,0.00,,,0.00,0,Wunderground v.1.15,2013-01-11 13:17:00,
2013-01-11 08:22:00,34.6,26.5,29.68,N/A,-32768,0.0,0.0,72,0.00,,,0.00,0,Wunderground v.1.15,2013-01-11 13:22:00,
2013-01-11 08:27:00,34.9,27.1,29.67,N/A,-32768,0.0,0.0,73,0.00,,,0.00,0,Wunderground v.1.15,2013-01-11 13:27:00,
2013-01-11 08:32:00,35.0,27.2,29.68,N/A,-32768,0.0,0.0,73,0.00,,,0.00,0,Wunderground v.1.15,2013-01-11 13:32:00,
2013-01-11 08:37:00,35.4,27.6,29.68,N/A,-32768,0.0,0.0,73,0.00,,,0.00,0,Wunderground v.1.15,2013-01-11 13:37:00,
2013-01-11 08:42:00,35.8,28.0,29.68,N/A,-32768,0.0,0.0,73,0.00,,,0.00,0,Wunderground v.1.15,2013-01-11 13:42:00,
2013-01-11 08:47:00,35.9,28.1,29.68,N/A,-32768,0.0,0.0,73,0.00,,,0.00,0,Wunderground v.1.15,2013-01-11 13:47:00,
2013-01-11 08:52:00,36.2,28.0,29.69,N/A,-32768,0.0,0.0,72,0.00,,,0.00,0,Wunderground v.1.15,2013-01-11 13:52:00,
2013-01-11 08:57:00,36.5,28.3,29.68,N/A,-32768,0.0,0.0,72,0.00,,,0.00,0,Wunderground v.1.15,2013-01-11 13:57:00,
2013-01-11 09:02:00,36.6,28.8,29.69,N/A,-32768,0.0,0.0,73,0.00,,,0.00,0,Wunderground v.1.15,2013-01-11 14:02:00,
2013-01-11 09:07:00,36.8,29.0,29.69,N/A,-32768,0.0,0.0,73,0.00,,,0.00,0,Wunderground v.1.15,2013-01-11 14:07:00,
2013-01-11 09:12:00,37.0,29.1,29.69,N/A,-32768,0.0,0.0,73,0.00,,,0.00,0,Wunderground v.1.15,2013-01-11 14:12:00,
2013-01-11 09:17:00,37.4,29.5,29.68,N/A,-32768,0.0,0.0,73,0.00,,,0.00,0,Wunderground v.1.15,2013-01-11 14:17:00,
2013-01-11 09:22:00,37.9,29.7,29.69,N/A,-32768,0.0,0.0,72,0.00,,,0.00,0,Wunderground v.1.15,2013-01-11 14:22:00,
2013-01-11 09:27:00,38.3,30.1,29.68,N/A,-32768,0.0,0.0,72,0.00,,,0.00,0,Wunderground v.1.15,2013-01-11 14:27:00,
2013-01-11 09:32:00,38.8,30.5,29.68,N/A,-32768,0.0,0.0,72,0.00,,,0.00,0,Wunderground v.1.15,2013-01-11 14:32:00,
2013-01-11 09:37:00,39.1,30.8,29.68,N/A,-32768,0.0,0.0,72,0.00,,,0.00,0,Wunderground v.1.15,2013-01-11 14:37:00,
2013-01-11 09:42:00,39.4,31.1,29.68,N/A,-32768,0.0,0.0,72,0.00,,,0.00,0,Wunderground v.1.15,2013-01-11 14:42:00,
2013-01-11 09:47:00,39.7,31.4,29.68,N/A,-32768,0.0,0.0,72,0.00,,,0.00,0,Wunderground v.1.15,2013-01-11 14:47:00,
2013-01-11 09:52:00,40.3,32.0,29.67,N/A,-32768,0.0,0.0,72,0.00,,,0.00,0,Wunderground v.1.15,2013-01-11 14:52:00,
2013-01-11 09:57:00,40.6,31.9,29.67,N/A,-32768,0.0,0.0,71,0.00,,,0.00,0,Wunderground v.1.15,2013-01-11 14:57:00,
2013-01-11 10:02:00,41.1,32.8,29.69,N/A,-32768,0.0,0.0,72,0.00,,,0.00,0,Wunderground v.1.15,2013-01-11 15:02:00,
2013-01-11 10:07:00,41.5,32.8,29.68,N/A,-32768,0.0,0.0,71,0.00,,,0.00,0,Wunderground v.1.15,2013-01-11 15:07:00,
2013-01-11 10:12:00,41.6,32.9,29.68,N/A,-32768,0.0,0.0,71,0.00,,,0.00,0,Wunderground v.1.15,2013-01-11 15:12:00,
2013-01-11 10:18:00,42.1,33.4,29.67,N/A,-32768,0.0,0.0,71,0.00,,,0.00,0,Wunderground v.1.15,2013-01-11 15:18:00,
2013-01-11 10:23:00,42.3,33.2,29.67,N/A,-32768,0.0,0.0,70,0.00,,,0.00,0,Wunderground v.1.15,2013-01-11 15:23:00,
2013-01-11 10:28:00,42.5,33.8,29.66,N/A,-32768,0.0,0.0,71,0.00,,,0.00,0,Wunderground v.1.15,2013-01-11 15:28:00,
2013-01-11 10:34:00,43.2,34.4,29.66,N/A,-32768,0.0,0.0,71,0.00,,,0.00,0,Wunderground v.1.15,2013-01-11 15:34:00,
2013-01-11 10:39:00,44.2,35.4,29.66,N/A,-32768,0.0,0.0,71,0.00,,,0.00,0,Wunderground v.1.15,2013-01-11 15:39:00,
2013-01-11 10:44:00,45.0,35.8,29.65,N/A,-32768,0.0,0.0,70,0.00,,,0.00,0,Wunderground v.1.15,2013-01-11 15:44:00,
2013-01-11 10:49:00,45.7,36.5,29.66,N/A,-32768,0.0,0.0,70,0.00,,,0.00,0,Wunderground v.1.15,2013-01-11 15:49:00,
2013-01-11 10:54:00,46.2,36.6,29.65,N/A,-32768,0.0,0.0,69,0.00,,,0.00,0,Wunderground v.1.15,2013-01-11 15:54:00,
2013-01-11 10:59:00,46.7,36.7,29.65,N/A,-32768,0.0,0.0,68,0.00,,,0.00,0,Wunderground v.1.15,2013-01-11 15:59:00,
2013-01-11 11:04:00,46.9,36.5,29.64,N/A,-32768,0.0,0.0,67,0.00,,,0.00,0,Wunderground v.1.15,2013-01-11 16:04:00,
2013-01-11 11:09:00,47.0,36.2,29.61,N/A,-32768,0.0,0.0,66,0.00,,,0.00,0,Wunderground v.1.15,2013-01-11 16:09:00,
2013-01-11 11:14:00,47.3,36.1,29.60,N/A,-32768,0.0,0.0,65,0.00,,,0.00,0,Wunderground v.1.15,2013-01-11 16:14:00,
2013-01-11 11:19:00,47.2,35.6,29.60,N/A,-32768,0.0,0.0,64,0.00,,,0.00,0,Wunderground v.1.15,2013-01-11 16:19:00,
2013-01-11 11:24:00,47.0,35.8,29.62,N/A,-32768,0.0,0.0,65,0.00,,,0.00,0,Wunderground v.1.15,2013-01-11 16:24:00,
2013-01-11 11:29:00,47.1,35.9,29.61,N/A,-32768,0.0,0.0,65,0.00,,,0.00,0,Wunderground v.1.15,2013-01-11 16:29:00,
2013-01-11 11:34:00,47.2,36.0,29.61,N/A,-32768,0.0,0.0,65,0.00,,,0.00,0,Wunderground v.1.15,2013-01-11 16:34:00,
2013-01-11 11:39:00,47.4,35.8,29.60,N/A,-32768,0.0,0.0,64,0.00,,,0.00,0,Wunderground v.1.15,2013-01-11 16:39:00,
2013-01-11 11:44:00,47.4,35.8,29.61,N/A,-32768,0.0,0.0,64,0.00,,,0.00,0,Wunderground v.1.15,2013-01-11 16:44:00,
2013-01-11 11:49:00,47.6,36.4,29.59,N/A,-32768,0.0,0.0,65,0.00,,,0.00,0,Wunderground v.1.15,2013-01-11 16:49:00,
2013-01-11 11:54:00,47.9,36.3,29.59,N/A,-32768,0.0,0.0,64,0.00,,,0.00,0,Wunderground v.1.15,2013-01-11 16:54:00,
2013-01-11 11:59:00,47.8,36.2,29.59,N/A,-32768,0.0,0.0,64,0.00,,,0.00,0,Wunderground v.1.15,2013-01-11 16:59:00,
2013-01-11 12:04:00,47.8,36.2,29.59,N/A,-32768,0.0,0.0,64,0.00,,,0.00,0,Wunderground v.1.15,2013-01-11 17:04:00,
2013-01-11 12:09:00,47.8,36.2,29.58,N/A,-32768,0.0,0.0,64,0.00,,,0.00,0,Wunderground v.1.15,2013-01-11 17:09:00,
2013-01-11 12:14:00,47.9,36.3,29.59,N/A,-32768,0.0,0.0,64,0.00,,,0.00,0,Wunderground v.1.15,2013-01-11 17:14:00,
2013-01-11 12:19:00,47.7,36.1,29.59,N/A,-32768,0.0,0.0,64,0.00,,,0.00,0,Wunderground v.1.15,2013-01-11 17:19:00,
2013-01-11 12:24:00,47.7,36.1,29.58,N/A,-32768,0.0,0.0,64,0.00,,,0.00,0,Wunderground v.1.15,2013-01-11 17:24:00,
2013-01-11 12:29:00,47.5,35.9,29.57,N/A,-32768,0.0,0.0,64,0.00,,,0.00,0,Wunderground v.1.15,2013-01-11 17:29:00,
2013-01-11 12:34:00,47.1,35.9,29.57,N/A,-32768,0.0,0.0,65,0.00,,,0.00,0,Wunderground v.1.15,2013-01-11 17:34:00,
2013-01-11 12:39:00,46.9,36.1,29.56,N/A,-32768,0.0,0.0,66,0.00,,,0.00,0,Wunderground v.1.15,2013-01-11 17:39:00,
2013-01-11 12:44:00,46.5,36.1,29.56,N/A,-32768,0.0,0.0,67,0.00,,,0.00,0,Wunderground v.1.15,2013-01-11 17:44:00,
2013-01-11 12:49:00,46.3,36.3,29.57,N/A,-32768,0.0,0.0,68,0.00,,,0.00,0,Wunderground v.1.15,2013-01-11 17:49:00,
2013-01-11 12:54:00,46.1,36.5,29.57,N/A,-32768,0.0,0.0,69,0.00,,,0.00,0,Wunderground v.1.15,2013-01-11 17:54:00,
2013-01-11 12:59:00,46.1,36.5,29.57,N/A,-32768,0.0,0.0,69,0.00,,,0.00,0,Wunderground v.1.15,2013-01-11 17:59:00,
2013-01-11 13:04:00,46.1,36.9,29.56,N/A,-32768,0.0,0.0,70,0.00,,,0.00,0,Wunderground v.1.15,2013-01-11 18:04:00,
2013-01-11 13:09:00,46.3,37.4,29.56,N/A,-32768,0.0,0.0,71,0.00,,,0.00,0,Wunderground v.1.15,2013-01-11 18:09:00,
2013-01-11 13:14:00,46.6,37.7,29.55,N/A,-32768,0.0,0.0,71,0.00,,,0.00,0,Wunderground v.1.15,2013-01-11 18:14:00,
2013-01-11 13:19:00,46.9,38.0,29.56,N/A,-32768,0.0,0.0,71,0.00,,,0.00,0,Wunderground v.1.15,2013-01-11 18:19:00,
2013-01-11 13:24:00,47.0,38.1,29.55,N/A,-32768,0.0,0.0,71,0.00,,,0.00,0,Wunderground v.1.15,2013-01-11 18:24:00,
2013-01-11 13:29:00,47.1,38.2,29.55,N/A,-32768,0.0,0.0,71,0.00,,,0.00,0,Wunderground v.1.15,2013-01-11 18:29:00,
2013-01-11 13:34:00,47.3,38.4,29.56,N/A,-32768,0.0,0.0,71,0.00,,,0.00,0,Wunderground v.1.15,2013-01-11 18:34:00,
2013-01-11 13:39:00,47.2,38.3,29.56,N/A,-32768,0.0,0.0,71,0.00,,,0.00,0,Wunderground v.1.15,2013-01-11 18:39:00,
2013-01-11 13:44:00,47.1,38.2,29.56,N/A,-32768,0.0,0.0,71,0.00,,,0.00,0,Wunderground v.1.15,2013-01-11 18:44:00,
2013-01-11 13:49:00,47.0,38.1,29.55,N/A,-32768,0.0,0.0,71,0.00,,,0.00,0,Wunderground v.1.15,2013-01-11 18:49:00,
2013-01-11 13:54:00,46.9,38.0,29.55,N/A,-32768,0.0,0.0,71,0.00,,,0.00,0,Wunderground v.1.15,2013-01-11 18:54:00,
2013-01-11 13:59:00,46.9,38.0,29.54,N/A,-32768,0.0,0.0,71,0.00,,,0.00,0,Wunderground v.1.15,2013-01-11 18:59:00,
2013-01-11 14:04:00,46.9,38.0,29.54,N/A,-32768,0.0,0.0,71,0.00,,,0.00,0,Wunderground v.1.15,2013-01-11 19:04:00,
2013-01-11 14:09:00,47.0,38.4,29.54,N/A,-32768,0.0,0.0,72,0.00,,,0.00,0,Wunderground v.1.15,2013-01-11 19:09:00,
2013-01-11 14:15:00,47.0,38.4,29.54,N/A,-32768,0.0,0.0,72,0.00,,,0.00,0,Wunderground v.1.15,2013-01-11 19:15:00,
2013-01-11 14:20:00,47.0,38.4,29.54,N/A,-32768,0.0,0.0,72,0.00,,,0.00,0,Wunderground v.1.15,2013-01-11 19:20:00,
2013-01-11 14:25:00,47.1,38.5,29.53,N/A,-32768,0.0,0.0,72,0.00,,,0.00,0,Wunderground v.1.15,2013-01-11 19:25:00,
2013-01-11 14:30:00,47.1,38.5,29.53,N/A,-32768,0.0,0.0,72,0.00,,,0.00,0,Wunderground v.1.15,2013-01-11 19:30:00,
2013-01-11 14:35:00,47.0,38.4,29.53,N/A,-32768,0.0,0.0,72,0.00,,,0.00,0,Wunderground v.1.15,2013-01-11 19:35:00,
2013-01-11 14:40:00,46.8,38.2,29.53,N/A,-32768,0.0,0.0,72,0.00,,,0.00,0,Wunderground v.1.15,2013-01-11 19:40:00,
2013-01-11 14:45:00,46.8,38.2,29.52,N/A,-32768,0.0,0.0,72,0.00,,,0.00,0,Wunderground v.1.15,2013-01-11 19:45:00,
2013-01-11 14:50:00,46.7,38.1,29.51,N/A,-32768,0.0,0.0,72,0.00,,,0.00,0,Wunderground v.1.15,2013-01-11 19:50:00,
2013-01-11 14:55:00,46.6,38.4,29.51,N/A,-32768,0.0,0.0,73,0.00,,,0.00,0,Wunderground v.1.15,2013-01-11 19:55:00,
2013-01-11 15:00:00,46.6,38.8,29.51,N/A,-32768,0.0,0.0,74,0.00,,,0.00,0,Wunderground v.1.15,2013-01-11 20:00:00,
2013-01-11 15:05:00,46.5,38.7,29.51,N/A,-32768,0.0,0.0,74,0.00,,,0.00,0,Wunderground v.1.15,2013-01-11 20:05:00,
2013-01-11 15:10:00,46.3,38.5,29.51,N/A,-32768,0.0,0.0,74,0.00,,,0.00,0,Wunderground v.1.15,2013-01-11 20:10:00,
2013-01-11 15:15:00,46.3,38.5,29.51,N/A,-32768,0.0,0.0,74,0.00,,,0.00,0,Wunderground v.1.15,2013-01-11 20:15:00,
2013-01-11 15:20:00,46.1,38.3,29.51,N/A,-32768,0.0,0.0,74,0.00,,,0.00,0,Wunderground v.1.15,2013-01-11 20:20:00,
2013-01-11 15:25:00,46.0,38.2,29.50,N/A,-32768,0.0,0.0,74,0.00,,,0.00,0,Wunderground v.1.15,2013-01-11 20:25:00,
2013-01-11 15:30:00,46.1,38.6,29.50,N/A,-32768,0.0,0.0,75,0.00,,,0.00,0,Wunderground v.1.15,2013-01-11 20:30:00,
2013-01-11 15:35:00,46.1,38.6,29.50,N/A,-32768,0.0,0.0,75,0.00,,,0.00,0,Wunderground v.1.15,2013-01-11 20:35:00,
2013-01-11 15:40:00,46.0,38.5,29.50,N/A,-32768,0.0,0.0,75,0.00,,,0.00,0,Wunderground v.1.15,2013-01-11 20:40:00,
2013-01-11 15:45:00,46.1,38.6,29.50,N/A,-32768,0.0,0.0,75,0.00,,,0.00,0,Wunderground v.1.15,2013-01-11 20:45:00,
2013-01-11 15:51:00,46.2,39.1,29.49,N/A,-32768,0.0,0.0,76,0.00,,,0.00,0,Wunderground v.1.15,2013-01-11 20:51:00,
2013-01-11 15:56:00,46.3,39.1,29.49,N/A,-32768,0.0,0.0,76,0.00,,,0.00,0,Wunderground v.1.15,2013-01-11 20:56:00,
2013-01-11 16:01:00,46.3,39.1,29.49,N/A,-32768,0.0,0.0,76,0.00,,,0.00,0,Wunderground v.1.15,2013-01-11 21:01:00,
2013-01-11 16:06:00,46.4,39.2,29.49,N/A,-32768,0.0,0.0,76,0.00,,,0.00,0,Wunderground v.1.15,2013-01-11 21:06:00,
2013-01-11 16:11:00,46.3,39.1,29.48,N/A,-32768,0.0,0.0,76,0.00,,,0.00,0,Wunderground v.1.15,2013-01-11 21:11:00,
2013-01-11 16:16:00,46.2,39.1,29.49,N/A,-32768,0.0,0.0,76,0.00,,,0.00,0,Wunderground v.1.15,2013-01-11 21:16:00,
2013-01-11 16:21:00,46.1,39.0,29.48,N/A,-32768,0.0,0.0,76,0.00,,,0.00,0,Wunderground v.1.15,2013-01-11 21:21:00,
2013-01-11 16:26:00,46.0,39.2,29.48,N/A,-32768,0.0,0.0,77,0.00,,,0.00,0,Wunderground v.1.15,2013-01-11 21:26:00,
2013-01-11 16:31:00,46.0,39.2,29.49,N/A,-32768,0.0,0.0,77,0.00,,,0.00,0,Wunderground v.1.15,2013-01-11 21:31:00,
2013-01-11 16:36:00,45.9,39.1,29.49,N/A,-32768,0.0,0.0,77,0.00,,,0.00,0,Wunderground v.1.15,2013-01-11 21:36:00,
2013-01-11 16:41:00,45.9,39.1,29.48,N/A,-32768,0.0,0.0,77,0.00,,,0.00,0,Wunderground v.1.15,2013-01-11 21:41:00,
2013-01-11 16:46:00,46.0,39.2,29.48,N/A,-32768,0.0,0.0,77,0.00,,,0.00,0,Wunderground v.1.15,2013-01-11 21:46:00,
2013-01-11 16:51:00,45.9,39.1,29.48,N/A,-32768,0.0,0.0,77,0.00,,,0.00,0,Wunderground v.1.15,2013-01-11 21:51:00,
2013-01-11 16:56:00,45.9,39.1,29.48,N/A,-32768,0.0,0.0,77,0.00,,,0.00,0,Wunderground v.1.15,2013-01-11 21:56:00,
2013-01-11 17:01:00,45.9,39.4,29.48,N/A,-32768,0.0,0.0,78,0.00,,,0.00,0,Wunderground v.1.15,2013-01-11 22:01:00,
2013-01-11 17:06:00,45.8,39.3,29.47,N/A,-32768,0.0,0.0,78,0.00,,,0.00,0,Wunderground v.1.15,2013-01-11 22:06:00,
2013-01-11 17:11:00,45.9,39.4,29.47,N/A,-32768,0.0,0.0,78,0.00,,,0.00,0,Wunderground v.1.15,2013-01-11 22:11:00,
2013-01-11 17:16:00,45.8,39.3,29.46,N/A,-32768,0.0,0.0,78,0.00,,,0.00,0,Wunderground v.1.15,2013-01-11 22:16:00,
2013-01-11 17:21:00,45.9,39.4,29.47,N/A,-32768,0.0,0.0,78,0.00,,,0.00,0,Wunderground v.1.15,2013-01-11 22:21:00,
2013-01-11 17:26:00,45.9,39.4,29.47,N/A,-32768,0.0,0.0,78,0.00,,,0.00,0,Wunderground v.1.15,2013-01-11 22:26:00,
2013-01-11 17:31:00,45.8,39.7,29.47,N/A,-32768,0.0,0.0,79,0.00,,,0.00,0,Wunderground v.1.15,2013-01-11 22:31:00,
2013-01-11 17:36:00,45.9,39.4,29.46,N/A,-32768,0.0,0.0,78,0.00,,,0.00,0,Wunderground v.1.15,2013-01-11 22:36:00,
2013-01-11 17:41:00,45.8,39.3,29.46,N/A,-32768,0.0,0.0,78,0.00,,,0.00,0,Wunderground v.1.15,2013-01-11 22:41:00,
2013-01-11 17:46:00,45.8,39.7,29.45,N/A,-32768,0.0,0.0,79,0.00,,,0.00,0,Wunderground v.1.15,2013-01-11 22:46:00,
2013-01-11 17:51:00,45.7,39.6,29.46,N/A,-32768,0.0,0.0,79,0.00,,,0.00,0,Wunderground v.1.15,2013-01-11 22:51:00,
2013-01-11 17:56:00,45.7,39.6,29.45,N/A,-32768,0.0,0.0,79,0.00,,,0.00,0,Wunderground v.1.15,2013-01-11 22:56:00,
2013-01-11 18:01:00,45.6,39.5,29.45,N/A,-32768,0.0,0.0,79,0.00,,,0.00,0,Wunderground v.1.15,2013-01-11 23:01:00,
2013-01-11 18:06:00,45.5,39.4,29.45,N/A,-32768,0.0,0.0,79,0.00,,,0.00,0,Wunderground v.1.15,2013-01-11 23:06:00,
2013-01-11 18:11:00,45.5,39.4,29.44,N/A,-32768,0.0,0.0,79,0.00,,,0.00,0,Wunderground v.1.15,2013-01-11 23:11:00,
2013-01-11 18:16:00,45.5,39.4,29.44,N/A,-32768,0.0,0.0,79,0.00,,,0.00,0,Wunderground v.1.15,2013-01-11 23:16:00,
2013-01-11 18:21:00,45.4,39.3,29.44,N/A,-32768,0.0,0.0,79,0.00,,,0.00,0,Wunderground v.1.15,2013-01-11 23:21:00,
2013-01-11 18:26:00,45.4,39.6,29.43,N/A,-32768,0.0,0.0,80,0.00,,,0.00,0,Wunderground v.1.15,2013-01-11 23:26:00,
2013-01-11 18:31:00,45.4,39.6,29.43,N/A,-32768,0.0,0.0,80,0.00,,,0.00,0,Wunderground v.1.15,2013-01-11 23:31:00,
2013-01-11 18:36:00,45.3,39.5,29.42,N/A,-32768,0.0,0.0,80,0.00,,,0.00,0,Wunderground v.1.15,2013-01-11 23:36:00,
2013-01-11 18:41:00,45.3,39.5,29.42,N/A,-32768,0.0,0.0,80,0.00,,,0.00,0,Wunderground v.1.15,2013-01-11 23:41:00,
2013-01-11 18:46:00,45.5,39.7,29.41,N/A,-32768,0.0,0.0,80,0.00,,,0.00,0,Wunderground v.1.15,2013-01-11 23:46:00,
2013-01-11 18:51:00,45.6,39.8,29.41,N/A,-32768,0.0,0.0,80,0.00,,,0.00,0,Wunderground v.1.15,2013-01-11 23:51:00,
2013-01-11 18:56:00,45.6,39.8,29.41,N/A,-32768,0.0,0.0,80,0.00,,,0.00,0,Wunderground v.1.15,2013-01-11 23:56:00,
2013-01-11 19:01:00,45.8,40.3,29.41,N/A,-32768,0.0,0.0,81,0.00,,,0.00,0,Wunderground v.1.15,2013-01-12 00:01:00,
2013-01-11 19:07:00,45.9,40.4,29.40,N/A,-32768,0.0,0.0,81,0.00,,,0.00,0,Wunderground v.1.15,2013-01-12 00:07:00,
2013-01-11 19:12:00,46.0,40.5,29.40,N/A,-32768,0.0,0.0,81,0.00,,,0.00,0,Wunderground v.1.15,2013-01-12 00:12:00,
2013-01-11 19:17:00,46.1,40.6,29.39,N/A,-32768,0.0,0.0,81,0.00,,,0.00,0,Wunderground v.1.15,2013-01-12 00:17:00,
2013-01-11 19:22:00,46.1,40.6,29.38,N/A,-32768,0.0,0.0,81,0.00,,,0.00,0,Wunderground v.1.15,2013-01-12 00:22:00,
2013-01-11 19:27:00,46.1,40.6,29.38,N/A,-32768,0.0,0.0,81,0.00,,,0.00,0,Wunderground v.1.15,2013-01-12 00:27:00,
2013-01-11 19:32:00,46.2,40.7,29.38,N/A,-32768,0.0,0.0,81,0.00,,,0.00,0,Wunderground v.1.15,2013-01-12 00:32:00,
2013-01-11 19:37:00,46.2,40.7,29.38,N/A,-32768,0.0,0.0,81,0.00,,,0.00,0,Wunderground v.1.15,2013-01-12 00:37:00,
2013-01-11 19:42:00,46.5,41.0,29.38,N/A,-32768,0.0,0.0,81,0.00,,,0.00,0,Wunderground v.1.15,2013-01-12 00:42:00,
2013-01-11 19:48:00,46.6,41.4,29.38,N/A,-32768,0.0,0.0,82,0.00,,,0.00,0,Wunderground v.1.15,2013-01-12 00:48:00,
2013-01-11 19:53:00,46.8,41.3,29.37,N/A,-32768,0.0,0.0,81,0.00,,,0.00,0,Wunderground v.1.15,2013-01-12 00:53:00,
2013-01-11 19:58:00,46.9,41.7,29.36,N/A,-32768,0.0,0.0,82,0.00,,,0.00,0,Wunderground v.1.15,2013-01-12 00:58:00,
2013-01-11 20:03:00,47.1,41.9,29.36,N/A,-32768,0.0,0.0,82,0.00,,,0.00,0,Wunderground v.1.15,2013-01-12 01:03:00,
2013-01-11 20:08:00,47.2,42.0,29.36,N/A,-32768,0.0,0.0,82,0.00,,,0.00,0,Wunderground v.1.15,2013-01-12 01:08:00,
2013-01-11 20:14:00,47.1,41.9,29.36,N/A,-32768,0.0,0.0,82,0.00,,,0.00,0,Wunderground v.1.15,2013-01-12 01:14:00,
2013-01-11 20:19:00,47.3,42.1,29.36,N/A,-32768,0.0,0.0,82,0.00,,,0.00,0,Wunderground v.1.15,2013-01-12 01:19:00,
2013-01-11 20:24:00,47.2,42.0,29.36,N/A,-32768,0.0,0.0,82,0.00,,,0.00,0,Wunderground v.1.15,2013-01-12 01:24:00,
2013-01-11 20:29:00,47.3,42.1,29.38,N/A,-32768,0.0,0.0,82,0.00,,,0.00,0,Wunderground v.1.15,2013-01-12 01:29:00,
2013-01-11 20:34:00,47.4,42.2,29.38,N/A,-32768,0.0,0.0,82,0.00,,,0.00,0,Wunderground v.1.15,2013-01-12 01:34:00,
2013-01-11 20:39:00,47.5,42.3,29.38,N/A,-32768,0.0,0.0,82,0.00,,,0.00,0,Wunderground v.1.15,2013-01-12 01:39:00,
2013-01-11 20:44:00,47.5,42.3,29.37,N/A,-32768,0.0,0.0,82,0.00,,,0.00,0,Wunderground v.1.15,2013-01-12 01:44:00,
2013-01-11 20:49:00,47.6,42.4,29.38,N/A,-32768,0.0,0.0,82,0.00,,,0.00,0,Wunderground v.1.15,2013-01-12 01:49:00,
2013-01-11 20:54:00,47.6,42.4,29.38,N/A,-32768,0.0,0.0,82,0.00,,,0.00,0,Wunderground v.1.15,2013-01-12 01:54:00,
2013-01-11 20:59:00,47.6,42.4,29.38,N/A,-32768,0.0,0.0,82,0.00,,,0.00,0,Wunderground v.1.15,2013-01-12 01:59:00,
2013-01-11 21:04:00,47.6,42.4,29.37,N/A,-32768,0.0,0.0,82,0.00,,,0.00,0,Wunderground v.1.15,2013-01-12 02:04:00,
2013-01-11 21:09:00,47.6,42.4,29.37,N/A,-32768,0.0,0.0,82,0.00,,,0.00,0,Wunderground v.1.15,2013-01-12 02:09:00,
2013-01-11 21:14:00,47.7,42.5,29.37,N/A,-32768,0.0,0.0,82,0.00,,,0.00,0,Wunderground v.1.15,2013-01-12 02:14:00,
2013-01-11 21:19:00,47.7,42.5,29.37,N/A,-32768,0.0,0.0,82,0.00,,,0.00,0,Wunderground v.1.15,2013-01-12 02:19:00,
2013-01-11 21:24:00,47.7,42.5,29.37,N/A,-32768,0.0,0.0,82,0.00,,,0.00,0,Wunderground v.1.15,2013-01-12 02:24:00,
2013-01-11 21:29:00,47.8,42.6,29.37,N/A,-32768,0.0,0.0,82,0.00,,,0.00,0,Wunderground v.1.15,2013-01-12 02:29:00,
2013-01-11 21:34:00,47.8,42.6,29.36,N/A,-32768,0.0,0.0,82,0.00,,,0.00,0,Wunderground v.1.15,2013-01-12 02:34:00,
2013-01-11 21:39:00,47.9,42.7,29.37,N/A,-32768,0.0,0.0,82,0.00,,,0.00,0,Wunderground v.1.15,2013-01-12 02:39:00,
2013-01-11 21:44:00,47.9,42.7,29.36,N/A,-32768,0.0,0.0,82,0.00,,,0.00,0,Wunderground v.1.15,2013-01-12 02:44:00,
2013-01-11 21:49:00,47.9,43.0,29.36,N/A,-32768,0.0,0.0,83,0.00,,,0.00,0,Wunderground v.1.15,2013-01-12 02:49:00,
2013-01-11 21:54:00,47.9,43.0,29.36,N/A,-32768,0.0,0.0,83,0.00,,,0.00,0,Wunderground v.1.15,2013-01-12 02:54:00,
2013-01-11 21:59:00,47.9,43.0,29.36,N/A,-32768,0.0,0.0,83,0.00,,,0.00,0,Wunderground v.1.15,2013-01-12 02:59:00,
2013-01-11 22:04:00,47.8,42.9,29.36,N/A,-32768,0.0,0.0,83,0.00,,,0.00,0,Wunderground v.1.15,2013-01-12 03:04:00,
2013-01-11 22:09:00,47.9,43.0,29.36,N/A,-32768,0.0,0.0,83,0.00,,,0.00,0,Wunderground v.1.15,2013-01-12 03:09:00,
2013-01-11 22:14:00,47.9,43.0,29.35,N/A,-32768,0.0,0.0,83,0.00,,,0.00,0,Wunderground v.1.15,2013-01-12 03:14:00,
2013-01-11 22:19:00,48.1,43.2,29.35,N/A,-32768,0.0,0.0,83,0.00,,,0.00,0,Wunderground v.1.15,2013-01-12 03:19:00,
2013-01-11 22:24:00,48.3,43.4,29.35,N/A,-32768,0.0,0.0,83,0.00,,,0.00,0,Wunderground v.1.15,2013-01-12 03:24:00,
2013-01-11 22:29:00,48.4,43.5,29.36,N/A,-32768,0.0,0.0,83,0.00,,,0.00,0,Wunderground v.1.15,2013-01-12 03:29:00,
2013-01-11 22:34:00,48.4,43.5,29.36,N/A,-32768,0.0,0.0,83,0.00,,,0.00,0,Wunderground v.1.15,2013-01-12 03:34:00,
2013-01-11 22:39:00,48.2,43.3,29.35,N/A,-32768,0.0,0.0,83,0.00,,,0.00,0,Wunderground v.1.15,2013-01-12 03:39:00,
2013-01-11 22:44:00,48.1,43.2,29.34,N/A,-32768,0.0,0.0,83,0.00,,,0.00,0,Wunderground v.1.15,2013-01-12 03:44:00,
2013-01-11 22:49:00,47.9,43.0,29.34,N/A,-32768,0.0,0.0,83,0.00,,,0.00,0,Wunderground v.1.15,2013-01-12 03:49:00,
2013-01-11 22:54:00,47.8,42.9,29.33,N/A,-32768,0.0,0.0,83,0.00,,,0.00,0,Wunderground v.1.15,2013-01-12 03:54:00,
2013-01-11 22:59:00,47.7,42.8,29.33,N/A,-32768,0.0,0.0,83,0.00,,,0.00,0,Wunderground v.1.15,2013-01-12 03:59:00,
2013-01-11 23:04:00,47.6,42.7,29.32,N/A,-32768,0.0,0.0,83,0.00,,,0.00,0,Wunderground v.1.15,2013-01-12 04:04:00,
2013-01-11 23:09:00,47.5,42.6,29.33,N/A,-32768,0.0,0.0,83,0.00,,,0.00,0,Wunderground v.1.15,2013-01-12 04:09:00,
2013-01-11 23:14:00,47.5,42.6,29.32,N/A,-32768,0.0,0.0,83,0.00,,,0.00,0,Wunderground v.1.15,2013-01-12 04:14:00,
2013-01-11 23:19:00,47.4,42.5,29.32,N/A,-32768,0.0,0.0,83,0.00,,,0.00,0,Wunderground v.1.15,2013-01-12 04:19:00,
2013-01-11 23:24:00,47.4,42.5,29.32,N/A,-32768,0.0,0.0,83,0.00,,,0.00,0,Wunderground v.1.15,2013-01-12 04:24:00,
2013-01-11 23:29:00,47.4,42.5,29.31,N/A,-32768,0.0,0.0,83,0.00,,,0.00,0,Wunderground v.1.15,2013-01-12 04:29:00,
2013-01-11 23:34:00,47.4,42.5,29.31,N/A,-32768,0.0,0.0,83,0.00,,,0.00,0,Wunderground v.1.15,2013-01-12 04:34:00,
2013-01-11 23:39:00,47.4,42.5,29.31,N/A,-32768,0.0,0.0,83,0.00,,,0.00,0,Wunderground v.1.15,2013-01-12 04:39:00,
2013-01-11 23:44:00,47.3,42.4,29.30,N/A,-32768,0.0,0.0,83,0.00,,,0.00,0,Wunderground v.1.15,2013-01-12 04:44:00,
2013-01-11 23:49:00,47.3,42.4,29.31,N/A,-32768,0.0,0.0,83,0.00,,,0.00,0,Wunderground v.1.15,2013-01-12 04:49:00,
2013-01-11 23:54:00,47.3,42.4,29.30,N/A,-32768,0.0,0.0,83,0.00,,,0.00,0,Wunderground v.1.15,2013-01-12 04:54:00,
2013-01-11 23:59:00,47.3,42.4,29.30,N/A,-32768,0.0,0.0,83,0.00,,,0.00,0,Wunderground v.1.15,2013-01-12 04:59:00,